Time;durP1;ratioP1;P1;durP2;ratioP2;P2;SDS_P1;SDS_P2;PMS_P1;PMS_P2;Temp;Humidity;BMP_temperature;BMP_pressure;BME280_temperature;BME280_humidity;BME280_pressure;Samples;Min_cycle;Max_cycle;Signal;HPM_P1;HPM_P2
2023/04/25 00:00:47;;;;;;;3.50;1.92;;;14.20;67.60;;;;;;2547727;54;20958;-69
2023/04/25 00:03:14;;;;;;;3.87;1.62;;;14.20;67.60;;;;;;2547225;54;20965;-69
2023/04/25 00:05:40;;;;;;;4.53;1.75;;;14.20;67.60;;;;;;2308800;56;21289;-69
2023/04/25 00:08:07;;;;;;;3.30;1.70;;;14.20;67.60;;;;;;2547509;54;21529;-69
2023/04/25 00:10:33;;;;;;;3.40;1.45;;;14.20;67.60;;;;;;2307838;55;20974;-69
2023/04/25 00:13:02;;;;;;;4.62;1.65;;;14.20;67.60;;;;;;2308167;56;21017;-69
2023/04/25 00:15:30;;;;;;;4.07;1.92;;;14.20;67.60;;;;;;2308134;55;20982;-69
2023/04/25 00:17:57;;;;;;;3.10;1.70;;;14.20;67.40;;;;;;2308252;55;20994;-69
2023/04/25 00:20:24;;;;;;;4.65;2.20;;;14.20;67.50;;;;;;2307648;56;20959;-69
2023/04/25 00:22:52;;;;;;;3.78;1.95;;;14.20;67.40;;;;;;2303991;55;21018;-69
2023/04/25 00:25:18;;;;;;;4.53;2.05;;;14.20;67.40;;;;;;2289105;54;21243;-69
2023/04/25 00:27:45;;;;;;;4.05;1.77;;;14.20;67.40;;;;;;2546351;54;20970;-69
2023/04/25 00:30:13;;;;;;;3.10;1.58;;;14.20;67.50;;;;;;2307820;56;20942;-69
2023/04/25 00:32:40;;;;;;;4.95;1.98;;;14.20;67.60;;;;;;2545919;54;20930;-69
2023/04/25 00:35:06;;;;;;;3.30;1.62;;;14.20;67.70;;;;;;2546343;54;20947;-69
2023/04/25 00:37:32;;;;;;;3.17;1.70;;;14.20;67.60;;;;;;2545871;54;20954;-69
2023/04/25 00:39:59;;;;;;;3.22;1.40;;;14.20;67.70;;;;;;2545328;54;20958;-69
2023/04/25 00:42:25;;;;;;;3.62;1.45;;;14.20;67.70;;;;;;2545920;54;21412;-69
2023/04/25 00:44:52;;;;;;;3.08;1.55;;;14.20;67.60;;;;;;2545336;54;20950;-69
2023/04/25 00:47:21;;;;;;;3.55;1.37;;;14.20;67.40;;;;;;2477837;55;20911;-69
2023/04/25 00:49:47;;;;;;;4.07;1.60;;;14.20;67.30;;;;;;2513702;54;20974;-69
2023/04/25 00:52:14;;;;;;;3.53;1.62;;;14.20;67.30;;;;;;2513826;54;20974;-69
2023/04/25 00:54:41;;;;;;;2.97;1.40;;;14.10;67.20;;;;;;2280762;55;20982;-69
2023/04/25 00:57:07;;;;;;;4.00;1.45;;;14.10;67.20;;;;;;2280838;56;20993;-69
2023/04/25 00:59:33;;;;;;;3.55;1.75;;;14.10;67.20;;;;;;2280965;55;20996;-69
2023/04/25 01:02:00;;;;;;;4.00;1.70;;;14.00;67.10;;;;;;2278606;55;20977;-69
2023/04/25 01:04:29;;;;;;;2.92;1.20;;;14.00;67.10;;;;;;2512063;55;20964;-69
2023/04/25 01:06:56;;;;;;;2.97;1.40;;;14.00;67.00;;;;;;2281326;55;20964;-69
2023/04/25 01:09:23;;;;;;;3.55;1.42;;;13.90;67.00;;;;;;2281413;55;21011;-69
2023/04/25 01:11:50;;;;;;;2.62;1.40;;;13.90;67.00;;;;;;2513867;54;20966;-66
2023/04/25 01:14:16;;;;;;;4.78;1.48;;;13.90;67.00;;;;;;2295492;55;20935;-69
2023/04/25 01:16:44;;;;;;;8.57;4.05;;;13.90;67.00;;;;;;2491675;54;20985;-69
2023/04/25 01:19:12;;;;;;;7.18;3.90;;;13.80;67.00;;;;;;2506377;53;21574;-69
2023/04/25 01:21:38;;;;;;;5.93;3.45;;;13.90;67.10;;;;;;2273976;55;20960;-68
2023/04/25 01:24:05;;;;;;;4.28;2.50;;;13.70;67.00;;;;;;2283709;55;21015;-69
2023/04/25 01:26:32;;;;;;;5.65;2.20;;;13.80;67.10;;;;;;2273533;55;21071;-69
2023/04/25 01:28:58;;;;;;;3.33;1.80;;;13.70;67.10;;;;;;2280887;55;21016;-68
2023/04/25 01:31:24;;;;;;;3.75;1.70;;;13.70;67.10;;;;;;2514004;54;21018;-69
2023/04/25 01:33:51;;;;;;;3.12;1.62;;;13.70;67.20;;;;;;2482858;54;21020;-69
2023/04/25 01:36:18;;;;;;;4.12;1.70;;;13.60;67.20;;;;;;2490182;54;21434;-69
2023/04/25 01:38:46;;;;;;;4.78;1.55;;;13.60;67.30;;;;;;2496873;54;20984;-68
2023/04/25 01:41:16;;;;;;;3.00;1.45;;;13.60;67.30;;;;;;2255459;55;21025;-68
2023/04/25 01:43:42;;;;;;;3.03;1.40;;;13.60;67.20;;;;;;2509794;55;21341;-69
2023/04/25 01:46:10;;;;;;;4.05;1.35;;;13.60;67.30;;;;;;2285639;56;20997;-69
2023/04/25 01:48:37;;;;;;;4.75;1.75;;;13.50;67.20;;;;;;2285663;56;21848;-69
2023/04/25 01:51:03;;;;;;;2.78;1.40;;;13.60;67.30;;;;;;2519545;54;21014;-69
2023/04/25 01:53:30;;;;;;;2.72;1.23;;;13.50;67.20;;;;;;2285550;55;21006;-69
2023/04/25 01:55:57;;;;;;;4.03;1.48;;;13.50;67.30;;;;;;2285974;55;20926;-69
2023/04/25 01:58:23;;;;;;;3.17;1.25;;;13.50;67.30;;;;;;2290437;55;20920;-69
2023/04/25 02:00:49;;;;;;;3.03;1.42;;;13.50;67.30;;;;;;2311900;55;20956;-69
2023/04/25 02:03:16;;;;;;;2.85;1.17;;;13.50;67.30;;;;;;2312123;56;22090;-69
2023/04/25 02:05:42;;;;;;;2.92;1.35;;;13.50;67.30;;;;;;2551690;54;21357;-69
2023/04/25 02:08:09;;;;;;;2.75;1.33;;;13.40;67.20;;;;;;2315068;56;20963;-69
2023/04/25 02:10:35;;;;;;;4.37;1.10;;;13.40;67.20;;;;;;2546111;54;20943;-69
2023/04/25 02:13:01;;;;;;;2.22;1.00;;;13.40;67.10;;;;;;2551456;54;21424;-69
2023/04/25 02:15:27;;;;;;;3.22;1.42;;;13.40;67.10;;;;;;2551007;54;20940;-68
2023/04/25 02:17:54;;;;;;;2.40;1.30;;;13.30;67.00;;;;;;2286398;54;20980;-69
2023/04/25 02:20:23;;;;;;;3.12;1.27;;;13.30;66.90;;;;;;2551462;54;20956;-68
2023/04/25 02:22:50;;;;;;;2.17;0.90;;;13.30;66.80;;;;;;2551663;54;20971;-68
2023/04/25 02:25:16;;;;;;;2.20;1.00;;;13.20;66.80;;;;;;2547168;54;20999;-68
2023/04/25 02:27:43;;;;;;;3.10;1.23;;;13.20;66.70;;;;;;2524564;54;21816;-68
2023/04/25 02:30:10;;;;;;;2.70;1.20;;;13.10;66.60;;;;;;2312307;55;20944;-68
2023/04/25 02:32:36;;;;;;;2.60;1.10;;;13.10;66.70;;;;;;2289171;55;20950;-68
2023/04/25 02:35:04;;;;;;;2.47;1.15;;;13.10;66.80;;;;;;2551428;54;21009;-69
2023/04/25 02:37:31;;;;;;;2.95;1.23;;;13.00;66.80;;;;;;2551321;54;21862;-69
2023/04/25 02:39:57;;;;;;;2.87;1.10;;;13.00;66.80;;;;;;2311939;56;20998;-69
2023/04/25 02:42:24;;;;;;;3.65;1.48;;;13.00;66.90;;;;;;2311625;56;20955;-68
2023/04/25 02:44:50;;;;;;;5.97;3.15;;;12.90;66.90;;;;;;2537876;54;20982;-69
2023/04/25 02:47:17;;;;;;;9.60;3.58;;;12.90;67.00;;;;;;2528719;54;20947;-69
2023/04/25 02:49:45;;;;;;;6.60;3.20;;;12.90;67.10;;;;;;2551404;54;20955;-68
2023/04/25 02:52:14;;;;;;;5.75;2.80;;;12.90;67.20;;;;;;2310036;55;20974;-69
2023/04/25 02:54:40;;;;;;;4.25;2.20;;;12.90;67.30;;;;;;2295044;55;20995;-69
2023/04/25 02:57:07;;;;;;;4.37;1.90;;;12.80;67.20;;;;;;2311905;56;20997;-68
2023/04/25 02:59:33;;;;;;;6.40;2.50;;;12.80;67.30;;;;;;2310874;56;20971;-69
2023/04/25 03:02:00;;;;;;;6.28;3.05;;;12.80;67.30;;;;;;2311611;56;21007;-69
2023/04/25 03:04:27;;;;;;;5.18;2.65;;;12.80;67.30;;;;;;2551353;54;20940;-71
2023/04/25 03:06:55;;;;;;;4.20;2.33;;;12.80;67.20;;;;;;2551862;54;21014;-71
2023/04/25 03:09:21;;;;;;;5.85;2.33;;;12.70;67.10;;;;;;2551324;54;20938;-71
2023/04/25 03:11:47;;;;;;;4.10;1.80;;;12.70;67.30;;;;;;2311835;55;21039;-70
2023/04/25 03:14:15;;;;;;;5.10;2.25;;;12.70;67.40;;;;;;2311897;55;20963;-70
2023/04/25 03:16:42;;;;;;;3.80;1.70;;;12.60;67.40;;;;;;2540523;54;21034;-72
2023/04/25 03:19:08;;;;;;;3.53;1.75;;;12.60;67.50;;;;;;2523032;54;21059;-70
2023/04/25 03:21:35;;;;;;;3.95;1.90;;;12.60;67.70;;;;;;2311700;55;20983;-72
2023/04/25 03:24:02;;;;;;;3.20;1.85;;;12.60;67.90;;;;;;2311244;55;20911;-71
2023/04/25 03:26:28;;;;;;;4.07;1.65;;;12.60;68.00;;;;;;2312156;56;20972;-71
2023/04/25 03:28:57;;;;;;;4.43;1.58;;;12.60;68.10;;;;;;2551805;54;20948;-71
2023/04/25 03:31:23;;;;;;;2.60;1.50;;;12.60;68.30;;;;;;2550679;54;21647;-71
2023/04/25 03:33:50;;;;;;;3.37;1.60;;;12.60;68.40;;;;;;2551533;54;20987;-70
2023/04/25 03:36:16;;;;;;;2.80;1.55;;;12.60;68.40;;;;;;2531247;54;21014;-70
2023/04/25 03:38:42;;;;;;;2.62;1.50;;;12.60;68.50;;;;;;2302203;55;20994;-71
2023/04/25 03:41:09;;;;;;;3.62;1.70;;;12.60;68.60;;;;;;2551494;54;20991;-70
2023/04/25 03:43:36;;;;;;;3.50;1.85;;;12.60;68.70;;;;;;2311612;55;22221;-70
2023/04/25 03:46:03;;;;;;;4.00;1.50;;;12.60;68.70;;;;;;2551027;54;20927;-70
2023/04/25 03:48:30;;;;;;;3.37;1.50;;;12.50;68.60;;;;;;2518932;54;21067;-70
2023/04/25 03:50:56;;;;;;;3.28;1.60;;;12.60;68.70;;;;;;2550985;54;20955;-70
2023/04/25 03:53:22;;;;;;;4.43;1.48;;;12.60;68.70;;;;;;2550964;54;21009;-70
2023/04/25 03:55:49;;;;;;;3.37;1.62;;;12.60;68.80;;;;;;2312187;56;20971;-70
2023/04/25 03:58:16;;;;;;;2.97;1.40;;;12.60;68.80;;;;;;2551282;54;21520;-70
2023/04/25 04:00:42;;;;;;;3.53;1.40;;;12.60;68.90;;;;;;2310702;56;21090;-70
2023/04/25 04:03:09;;;;;;;3.10;1.37;;;12.60;68.80;;;;;;2551678;54;21319;-70
2023/04/25 04:05:35;;;;;;;2.97;1.30;;;12.50;68.70;;;;;;2551148;53;20963;-70
2023/04/25 04:08:01;;;;;;;3.92;1.58;;;12.60;68.80;;;;;;2312299;56;20967;-71
2023/04/25 04:10:30;;;;;;;3.37;1.40;;;12.50;68.70;;;;;;2310903;56;21075;-70
2023/04/25 04:12:57;;;;;;;3.12;1.50;;;12.50;68.70;;;;;;2545934;54;20974;-70
2023/04/25 04:15:23;;;;;;;4.68;1.50;;;12.50;68.70;;;;;;2524792;54;20920;-71
2023/04/25 04:17:50;;;;;;;2.62;1.40;;;12.50;68.70;;;;;;2312416;55;20960;-70
2023/04/25 04:20:19;;;;;;;3.47;1.52;;;12.50;68.70;;;;;;2289115;55;21053;-70
2023/04/25 04:22:46;;;;;;;2.90;1.58;;;12.50;68.80;;;;;;2312101;56;20939;-70
2023/04/25 04:25:13;;;;;;;2.40;1.15;;;12.50;68.80;;;;;;2552439;54;20908;-71
2023/04/25 04:27:40;;;;;;;3.30;1.15;;;12.40;68.80;;;;;;2551420;54;20992;-70
2023/04/25 04:30:08;;;;;;;2.22;1.00;;;12.40;68.80;;;;;;2312335;55;20895;-70
2023/04/25 04:32:39;;;;;;;2.62;1.27;;;12.40;68.90;;;;;;2552065;54;20947;-70
2023/04/25 04:35:06;;;;;;;3.25;1.00;;;12.40;69.00;;;;;;2312292;55;21436;-70
2023/04/25 04:37:36;;;;;;;3.85;1.30;;;12.40;69.00;;;;;;2312533;56;21494;-70
2023/04/25 04:40:04;;;;;;;3.10;1.35;;;12.40;69.10;;;;;;2289289;55;21904;-70
2023/04/25 04:42:33;;;;;;;2.30;1.08;;;12.40;69.20;;;;;;2285561;55;21036;-70
2023/04/25 04:45:01;;;;;;;3.10;1.35;;;12.40;69.20;;;;;;2513870;54;20942;-70
2023/04/25 04:47:33;;;;;;;2.95;1.23;;;12.40;69.20;;;;;;2513873;54;20990;-70
2023/04/25 04:50:00;;;;;;;3.60;1.55;;;12.40;69.20;;;;;;2289089;55;20957;-70
2023/04/25 04:52:26;;;;;;;5.35;2.87;;;12.40;69.30;;;;;;2519745;54;21443;-70
2023/04/25 04:54:52;;;;;;;6.32;3.10;;;12.40;69.30;;;;;;2284171;55;20970;-70
2023/04/25 04:57:19;;;;;;;5.55;2.95;;;12.40;69.30;;;;;;2519948;54;20942;-70
2023/04/25 04:59:45;;;;;;;4.78;2.15;;;12.40;69.40;;;;;;2520241;54;20934;-70
2023/04/25 05:02:13;;;;;;;5.00;1.83;;;12.40;69.40;;;;;;2286492;55;20941;-70
2023/04/25 05:04:39;;;;;;;3.47;1.62;;;12.40;69.40;;;;;;2520036;54;20966;-70
2023/04/25 05:07:06;;;;;;;3.53;1.73;;;12.40;69.40;;;;;;2520278;54;21573;-70
2023/04/25 05:09:32;;;;;;;2.67;1.30;;;12.40;69.40;;;;;;2479426;55;20962;-71
2023/04/25 05:12:00;;;;;;;2.42;1.12;;;12.40;69.50;;;;;;2513746;54;21019;-71
2023/04/25 05:14:27;;;;;;;2.72;1.20;;;12.40;69.60;;;;;;2513543;55;21763;-71
2023/04/25 05:16:53;;;;;;;2.70;1.17;;;12.40;69.60;;;;;;2512951;54;21746;-71
2023/04/25 05:19:19;;;;;;;3.37;1.10;;;12.40;69.60;;;;;;2505155;54;21496;-70
2023/04/25 05:21:46;;;;;;;2.50;1.10;;;12.40;69.50;;;;;;2512345;54;20960;-70
2023/04/25 05:24:12;;;;;;;2.65;1.00;;;12.40;69.50;;;;;;2513781;54;21014;-72
2023/04/25 05:26:38;;;;;;;3.35;1.40;;;12.40;69.50;;;;;;2280454;55;20930;-71
2023/04/25 05:29:06;;;;;;;4.43;1.40;;;12.50;69.70;;;;;;2281264;55;20946;-73
2023/04/25 05:31:32;;;;;;;2.72;1.40;;;12.50;69.80;;;;;;2280648;55;20951;-73
2023/04/25 05:33:58;;;;;;;2.83;1.30;;;12.50;69.80;;;;;;2513896;54;20919;-71
2023/04/25 05:36:25;;;;;;;2.30;1.10;;;12.50;69.80;;;;;;2490702;54;20972;-73
2023/04/25 05:38:52;;;;;;;2.95;1.10;;;12.50;69.80;;;;;;2482541;54;21477;-72
2023/04/25 05:41:18;;;;;;;2.37;1.20;;;12.50;69.80;;;;;;2483286;54;21238;-72
2023/04/25 05:43:46;;;;;;;3.65;1.42;;;12.50;69.80;;;;;;2482314;54;21048;-72
2023/04/25 05:46:13;;;;;;;3.15;1.30;;;12.50;69.90;;;;;;2255137;55;21418;-72
2023/04/25 05:48:39;;;;;;;3.22;1.48;;;12.50;69.90;;;;;;2255266;55;21815;-73
2023/04/25 05:51:05;;;;;;;4.15;1.55;;;12.50;69.80;;;;;;2255929;55;20924;-74
2023/04/25 05:53:32;;;;;;;3.08;1.50;;;12.50;69.70;;;;;;2482377;54;20921;-74
2023/04/25 05:55:58;;;;;;;3.05;1.50;;;12.50;69.50;;;;;;2483172;54;20985;-72
2023/04/25 05:58:25;;;;;;;3.28;1.70;;;12.50;69.40;;;;;;2482499;54;21089;-71
2023/04/25 06:00:51;;;;;;;5.62;1.62;;;12.50;69.20;;;;;;2255651;55;21315;-72
2023/04/25 06:03:18;;;;;;;2.70;1.33;;;12.50;69.10;;;;;;2483445;54;20975;-72
2023/04/25 06:05:47;;;;;;;3.10;1.60;;;12.40;68.90;;;;;;2255572;55;20965;-74
2023/04/25 06:08:14;;;;;;;2.85;1.40;;;12.40;68.90;;;;;;2483446;54;20983;-74
2023/04/25 06:10:40;;;;;;;2.90;1.40;;;12.40;68.90;;;;;;2268134;56;21058;-73
2023/04/25 06:13:07;;;;;;;2.50;1.40;;;12.30;68.90;;;;;;2487922;55;20977;-73
2023/04/25 06:15:33;;;;;;;3.22;1.60;;;12.30;69.00;;;;;;2520115;54;20922;-72
2023/04/25 06:17:59;;;;;;;3.97;1.75;;;12.30;69.10;;;;;;2280948;55;20982;-73
2023/04/25 06:20:25;;;;;;;3.65;1.60;;;12.20;69.10;;;;;;2279278;55;21013;-72
2023/04/25 06:22:52;;;;;;;3.40;1.60;;;12.20;69.10;;;;;;2512279;54;21471;-71
2023/04/25 06:25:18;;;;;;;5.72;2.15;;;12.20;69.10;;;;;;2512128;54;21466;-70
2023/04/25 06:27:44;;;;;;;5.20;1.65;;;12.10;69.20;;;;;;2527396;54;20990;-68
2023/04/25 06:30:12;;;;;;;3.60;1.45;;;12.10;69.20;;;;;;2280950;55;20959;-73
2023/04/25 06:32:38;;;;;;;4.35;1.50;;;12.10;69.40;;;;;;2485417;54;20991;-71
2023/04/25 06:35:05;;;;;;;3.37;1.52;;;12.00;69.40;;;;;;2311924;55;20931;-73
2023/04/25 06:37:32;;;;;;;4.15;1.60;;;12.00;69.60;;;;;;2311578;56;20975;-73
2023/04/25 06:39:58;;;;;;;4.43;2.37;;;12.00;69.80;;;;;;2312086;56;20958;-72
2023/04/25 06:42:24;;;;;;;4.30;2.17;;;12.00;69.80;;;;;;2551221;54;20956;-71
2023/04/25 06:44:50;;;;;;;3.80;1.83;;;12.00;69.90;;;;;;2312463;55;20987;-72
2023/04/25 06:47:18;;;;;;;2.67;1.33;;;12.00;70.10;;;;;;2551269;54;21424;-71
2023/04/25 06:49:44;;;;;;;3.67;1.80;;;12.00;70.20;;;;;;2551136;54;21090;-73
2023/04/25 06:52:11;;;;;;;3.58;1.10;;;11.90;70.00;;;;;;2551951;54;21040;-73
2023/04/25 06:54:37;;;;;;;3.17;1.20;;;12.00;70.10;;;;;;2311981;55;20959;-70
2023/04/25 06:57:03;;;;;;;3.45;1.40;;;11.90;70.00;;;;;;2311965;55;21185;-73
2023/04/25 06:59:30;;;;;;;3.40;1.20;;;11.90;70.00;;;;;;2297570;55;20926;-68
2023/04/25 07:01:56;;;;;;;2.92;1.20;;;11.90;70.00;;;;;;2538750;54;21034;-72
2023/04/25 07:04:22;;;;;;;2.08;0.95;;;11.90;70.10;;;;;;2550727;54;21018;-70
2023/04/25 07:06:49;;;;;;;3.05;0.90;;;11.90;70.00;;;;;;2551259;54;21733;-72
2023/04/25 07:09:16;;;;;;;2.22;1.00;;;11.90;70.00;;;;;;2535193;54;20958;-69
2023/04/25 07:11:42;;;;;;;2.45;1.00;;;11.90;70.10;;;;;;2512945;54;20985;-73
2023/04/25 07:14:08;;;;;;;3.08;1.20;;;11.90;70.10;;;;;;2543583;54;21051;-71
2023/04/25 07:16:36;;;;;;;3.58;1.10;;;11.90;70.20;;;;;;2311416;56;20931;-72
2023/04/25 07:19:03;;;;;;;2.90;1.17;;;11.90;70.20;;;;;;2551057;54;22248;-72
2023/04/25 07:21:31;;;;;;;2.35;1.12;;;11.80;70.00;;;;;;2311410;55;21019;-70
2023/04/25 07:24:01;;;;;;;2.97;1.35;;;11.80;70.00;;;;;;2311465;56;20990;-72
2023/04/25 07:26:27;;;;;;;4.37;1.42;;;11.80;70.00;;;;;;2311391;56;21322;-72
2023/04/25 07:28:54;;;;;;;3.70;1.35;;;11.80;70.00;;;;;;2312088;56;20999;-70
2023/04/25 07:31:21;;;;;;;2.78;1.30;;;11.80;70.00;;;;;;2311449;55;21361;-71
2023/04/25 07:33:47;;;;;;;3.30;1.45;;;11.80;70.00;;;;;;2312050;55;21515;-72
2023/04/25 07:36:15;;;;;;;3.53;1.35;;;11.70;69.80;;;;;;2551377;54;20935;-71
2023/04/25 07:38:41;;;;;;;3.20;1.27;;;11.70;69.90;;;;;;2262267;55;20941;-71
2023/04/25 07:41:08;;;;;;;3.85;1.33;;;11.70;70.00;;;;;;2545200;54;20983;-71
2023/04/25 07:43:34;;;;;;;4.62;1.40;;;11.70;70.20;;;;;;2305988;55;21042;-71
2023/04/25 07:46:04;;;;;;;3.20;1.50;;;11.70;70.40;;;;;;2306695;55;21769;-71
2023/04/25 07:48:30;;;;;;;3.40;1.83;;;11.70;70.60;;;;;;2306265;55;20940;-73
2023/04/25 07:50:57;;;;;;;2.70;1.48;;;11.70;70.80;;;;;;2306576;55;21019;-73
2023/04/25 07:53:23;;;;;;;2.53;1.30;;;11.70;71.00;;;;;;2306200;55;21020;-73
2023/04/25 07:55:50;;;;;;;3.08;1.42;;;11.70;71.10;;;;;;2545453;54;20944;-72
2023/04/25 07:58:21;;;;;;;2.70;1.40;;;11.80;71.30;;;;;;2545756;54;20955;-71
2023/04/25 08:00:47;;;;;;;2.83;1.33;;;11.80;71.40;;;;;;2545175;54;21008;-71
2023/04/25 08:03:14;;;;;;;3.15;1.40;;;11.80;71.40;;;;;;2307244;55;20952;-72
2023/04/25 08:05:40;;;;;;;2.90;1.70;;;11.80;71.40;;;;;;2280353;55;20978;-69
2023/04/25 08:08:07;;;;;;;2.33;1.10;;;11.80;71.30;;;;;;2291066;56;20973;-70
2023/04/25 08:10:34;;;;;;;3.22;1.30;;;11.80;71.20;;;;;;2285368;56;20973;-70
2023/04/25 08:13:00;;;;;;;2.10;1.00;;;11.90;71.30;;;;;;2285299;56;20969;-69
2023/04/25 08:15:26;;;;;;;2.83;1.00;;;11.90;71.10;;;;;;2286103;55;22016;-71
2023/04/25 08:17:52;;;;;;;1.98;0.85;;;11.90;71.00;;;;;;2283766;55;21765;-73
2023/04/25 08:20:21;;;;;;;1.90;0.88;;;11.90;70.90;;;;;;2519309;54;20962;-69
2023/04/25 08:22:48;;;;;;;1.80;0.73;;;11.90;70.70;;;;;;2301937;55;20959;-69
2023/04/25 08:25:15;;;;;;;2.37;0.90;;;11.90;70.60;;;;;;2311790;55;21043;-68
2023/04/25 08:27:42;;;;;;;1.92;0.77;;;11.90;70.50;;;;;;2311521;55;20955;-70
2023/04/25 08:30:13;;;;;;;1.62;0.75;;;11.90;70.50;;;;;;2312002;56;21599;-74
2023/04/25 08:32:39;;;;;;;1.15;0.60;;;11.90;70.50;;;;;;2310731;56;20954;-72
2023/04/25 08:35:06;;;;;;;1.42;0.68;;;11.90;70.40;;;;;;2311511;55;21003;-75
2023/04/25 08:37:36;;;;;;;2.53;0.80;;;11.90;70.30;;;;;;2522805;54;21001;-76
2023/04/25 08:40:07;;;;;;;1.75;0.68;;;11.80;70.10;;;;;;2309053;55;21551;-75
2023/04/25 08:42:35;;;;;;;2.00;0.75;;;11.90;70.20;;;;;;2551490;54;21300;-71
2023/04/25 08:45:05;;;;;;;1.40;0.57;;;11.80;70.00;;;;;;2551421;54;20983;-71
2023/04/25 08:47:33;;;;;;;2.00;0.68;;;11.80;70.10;;;;;;2551095;54;20995;-74
2023/04/25 08:49:59;;;;;;;2.37;0.57;;;11.80;70.10;;;;;;2551992;54;20978;-78
2023/04/25 08:52:26;;;;;;;2.95;0.80;;;11.80;70.30;;;;;;2311552;55;21056;-73
2023/04/25 08:54:52;;;;;;;1.67;0.55;;;11.80;70.40;;;;;;2311874;55;21034;-74
2023/04/25 08:57:19;;;;;;;1.37;0.57;;;11.70;70.50;;;;;;2311720;55;20931;-73
2023/04/25 08:59:46;;;;;;;1.20;0.50;;;11.80;70.60;;;;;;2311577;55;21010;-73
2023/04/25 09:02:17;;;;;;;2.00;0.60;;;11.80;70.50;;;;;;2311023;56;20935;-71
2023/04/25 09:04:45;;;;;;;0.90;0.50;;;11.80;70.60;;;;;;2311227;55;21066;-73
2023/04/25 09:07:12;;;;;;;1.33;0.55;;;11.70;70.70;;;;;;2551104;54;21853;-72
2023/04/25 09:09:39;;;;;;;2.12;0.90;;;11.80;71.00;;;;;;2311059;55;21048;-71
2023/04/25 09:12:05;;;;;;;1.45;0.70;;;11.80;71.00;;;;;;2550774;54;22019;-73
2023/04/25 09:14:31;;;;;;;1.50;0.60;;;11.80;71.10;;;;;;2310667;56;21271;-70
2023/04/25 09:16:59;;;;;;;1.42;0.65;;;11.80;71.20;;;;;;2311708;56;20971;-71
2023/04/25 09:19:30;;;;;;;1.45;0.68;;;11.90;71.30;;;;;;2312437;56;20954;-70
2023/04/25 09:22:00;;;;;;;2.10;0.70;;;11.90;71.30;;;;;;2522911;54;21023;-71
2023/04/25 09:24:33;;;;;;;0.95;0.52;;;11.90;71.20;;;;;;2310869;56;20959;-71
2023/04/25 09:27:01;;;;;;;2.45;1.00;;;11.90;71.20;;;;;;2551068;54;21094;-70
2023/04/25 09:29:31;;;;;;;3.35;1.60;;;11.90;71.30;;;;;;2311293;55;20983;-75
2023/04/25 09:32:19;;;;;;;2.53;1.30;;;12.00;71.50;;;;;;2299904;55;21010;-74
2023/04/25 09:34:51;;;;;;;1.75;0.88;;;12.00;71.40;;;;;;2543102;54;20951;-70
2023/04/25 09:37:25;;;;;;;1.48;0.70;;;12.00;71.50;;;;;;2311508;56;20915;-71
2023/04/25 09:40:05;;;;;;;1.65;0.80;;;12.10;71.40;;;;;;2311260;56;20971;-74
2023/04/25 09:42:31;;;;;;;1.45;0.70;;;12.10;71.40;;;;;;2313162;55;21722;-72
2023/04/25 09:44:58;;;;;;;1.85;0.90;;;12.10;71.60;;;;;;2551666;54;20932;-73
2023/04/25 09:47:26;;;;;;;1.37;0.60;;;12.20;71.80;;;;;;2311026;56;20995;-70
2023/04/25 09:49:55;;;;;;;2.42;0.90;;;12.20;71.70;;;;;;2551375;54;20963;-70
2023/04/25 09:52:24;;;;;;;1.45;0.70;;;12.20;71.50;;;;;;2311692;56;21412;-69
2023/04/25 09:54:51;;;;;;;1.00;0.55;;;12.30;71.50;;;;;;2551168;54;20952;-74
2023/04/25 09:57:22;;;;;;;0.80;0.40;;;12.30;71.60;;;;;;2551047;54;21413;-71
2023/04/25 09:59:52;;;;;;;1.50;0.70;;;12.30;71.70;;;;;;2311064;55;21694;-71
2023/04/25 10:02:21;;;;;;;1.85;0.80;;;12.30;71.60;;;;;;2311627;56;20911;-72
2023/04/25 10:04:54;;;;;;;2.22;0.82;;;12.40;71.70;;;;;;2310937;56;21869;-72
2023/04/25 10:07:28;;;;;;;3.00;1.08;;;12.40;71.70;;;;;;2550919;54;20998;-70
2023/04/25 10:10:04;;;;;;;2.17;1.02;;;12.50;71.90;;;;;;2550748;53;21050;-71
2023/04/25 10:12:33;;;;;;;5.15;2.62;;;12.60;71.80;;;;;;2550511;54;21452;-73
2023/04/25 10:15:00;;;;;;;5.22;3.00;;;12.60;72.00;;;;;;2550878;54;21026;-73
2023/04/25 10:17:27;;;;;;;5.78;3.37;;;12.60;72.10;;;;;;2550260;54;20959;-73
2023/04/25 10:19:54;;;;;;;3.72;2.30;;;12.70;72.30;;;;;;2311195;56;20927;-74
2023/04/25 10:22:31;;;;;;;4.43;2.42;;;12.70;72.40;;;;;;2550731;54;21471;-74
2023/04/25 10:24:57;;;;;;;3.65;1.80;;;12.80;73.00;;;;;;2311340;56;21007;-71
2023/04/25 10:27:23;;;;;;;2.90;1.35;;;12.90;74.40;;;;;;2550651;54;20999;-71
2023/04/25 10:30:15;;;;;;;2.40;1.12;;;13.00;74.20;;;;;;2550959;54;20991;-71
2023/04/25 10:32:45;;;;;;;1.95;1.00;;;13.10;74.10;;;;;;2290230;55;20959;-72
2023/04/25 10:35:18;;;;;;;1.80;0.70;;;13.30;75.00;;;;;;2550659;54;21509;-70
2023/04/25 10:38:09;;;;;;;2.33;0.77;;;13.40;75.70;;;;;;2511865;54;20944;-71
2023/04/25 10:40:35;;;;;;;1.80;0.80;;;13.60;75.70;;;;;;2511714;54;20947;-70
2023/04/25 10:43:33;;;;;;;1.62;0.73;;;13.70;75.90;;;;;;2506512;54;21464;-70
2023/04/25 10:46:00;;;;;;;1.35;0.70;;;13.80;75.40;;;;;;2529366;54;20965;-70
2023/04/25 10:48:27;;;;;;;1.75;0.82;;;14.00;75.90;;;;;;2535053;54;21493;-70
2023/04/25 10:51:10;;;;;;;1.55;0.60;;;14.10;76.10;;;;;;2301096;55;20924;-70
2023/04/25 10:53:37;;;;;;;1.95;0.80;;;14.20;75.30;;;;;;2543428;54;21496;-70
2023/04/25 10:56:21;;;;;;;1.80;0.73;;;14.30;75.40;;;;;;2300337;55;21017;-71
2023/04/25 10:58:48;;;;;;;2.15;1.00;;;14.40;74.90;;;;;;2544414;54;20976;-71
2023/04/25 11:01:24;;;;;;;2.22;1.02;;;14.50;75.20;;;;;;2544995;53;21060;-70
2023/04/25 11:04:00;;;;;;;2.17;1.05;;;14.60;74.90;;;;;;2309221;55;20928;-69
2023/04/25 11:06:37;;;;;;;3.83;1.30;;;14.80;75.00;;;;;;2544824;54;20919;-71
2023/04/25 11:09:10;;;;;;;2.05;0.95;;;14.80;75.00;;;;;;2306559;55;21339;-70
2023/04/25 11:11:36;;;;;;;2.03;0.93;;;14.90;74.90;;;;;;2306404;55;21341;-70
2023/04/25 11:14:03;;;;;;;2.20;1.20;;;15.00;75.10;;;;;;2544731;54;21079;-70
2023/04/25 11:16:30;;;;;;;1.83;0.98;;;15.10;74.90;;;;;;2544575;54;20999;-70
2023/04/25 11:18:59;;;;;;;2.35;1.30;;;15.20;74.50;;;;;;2306400;55;20964;-73
2023/04/25 11:21:27;;;;;;;2.30;1.08;;;15.30;73.40;;;;;;2531371;54;21010;-70
2023/04/25 11:23:55;;;;;;;2.72;1.10;;;15.30;72.90;;;;;;2544620;54;21023;-72
2023/04/25 11:26:24;;;;;;;2.20;1.00;;;15.40;72.40;;;;;;2544523;54;20908;-72
2023/04/25 11:28:51;;;;;;;2.45;1.00;;;15.40;71.70;;;;;;2535010;54;20969;-70
2023/04/25 11:31:20;;;;;;;2.60;0.90;;;15.40;70.90;;;;;;2304172;55;20928;-71
2023/04/25 11:33:48;;;;;;;2.37;1.00;;;15.30;69.20;;;;;;2277789;55;21053;-72
2023/04/25 11:36:14;;;;;;;2.45;0.90;;;15.20;68.10;;;;;;2517380;54;21451;-70
2023/04/25 11:38:42;;;;;;;1.37;0.65;;;15.10;67.20;;;;;;2289511;55;20912;-69
2023/04/25 11:41:08;;;;;;;1.40;0.57;;;15.00;66.90;;;;;;2544388;54;20960;-72
2023/04/25 11:43:34;;;;;;;0.57;0.30;;;14.80;67.00;;;;;;2305876;55;20920;-71
2023/04/25 11:46:03;;;;;;;0.40;0.30;;;14.70;67.50;;;;;;2544270;54;21051;-72
2023/04/25 11:48:39;;;;;;;0.80;0.40;;;14.60;67.90;;;;;;2543539;54;21409;-69
2023/04/25 11:51:06;;;;;;;0.60;0.30;;;14.50;69.20;;;;;;2535658;54;20986;-72
2023/04/25 11:53:32;;;;;;;0.82;0.40;;;14.40;69.30;;;;;;2284407;55;21013;-72
2023/04/25 11:55:58;;;;;;;1.90;0.77;;;14.30;69.90;;;;;;2544984;54;21240;-72
2023/04/25 11:58:25;;;;;;;3.12;1.30;;;14.20;70.40;;;;;;2543666;54;20940;-74
2023/04/25 12:00:52;;;;;;;1.48;0.65;;;14.20;71.10;;;;;;2543744;54;22014;-72
2023/04/25 12:03:18;;;;;;;2.25;0.95;;;14.20;71.60;;;;;;2544586;54;20948;-72
2023/04/25 12:05:46;;;;;;;3.03;1.30;;;14.20;72.10;;;;;;2544873;54;21000;-72
2023/04/25 12:08:13;;;;;;;2.15;0.82;;;14.20;72.50;;;;;;2545842;54;20924;-72
2023/04/25 12:10:41;;;;;;;1.62;0.80;;;14.20;73.30;;;;;;2544051;54;20984;-74
2023/04/25 12:13:28;;;;;;;1.58;0.65;;;14.20;73.00;;;;;;2536519;54;21085;-72
2023/04/25 12:15:56;;;;;;;1.48;0.70;;;14.30;73.50;;;;;;2304168;55;21023;-72
2023/04/25 12:18:27;;;;;;;1.80;0.55;;;14.40;74.50;;;;;;2545349;54;20931;-72
2023/04/25 12:20:54;;;;;;;1.58;0.60;;;14.40;75.40;;;;;;2306652;55;20924;-72
2023/04/25 12:23:30;;;;;;;1.62;0.65;;;14.60;75.90;;;;;;2306367;55;21516;-72
2023/04/25 12:25:57;;;;;;;1.08;0.50;;;14.60;74.90;;;;;;2544477;54;21000;-72
2023/04/25 12:28:24;;;;;;;1.90;0.80;;;14.70;74.90;;;;;;2544979;54;21020;-72
2023/04/25 12:31:00;;;;;;;1.75;0.80;;;14.80;74.40;;;;;;2544110;54;20928;-71
2023/04/25 12:33:30;;;;;;;1.52;0.70;;;14.90;73.50;;;;;;2531179;54;21648;-73
2023/04/25 12:35:57;;;;;;;1.98;0.90;;;14.90;73.70;;;;;;2540599;54;21046;-74
2023/04/25 12:38:28;;;;;;;2.30;0.98;;;15.00;74.20;;;;;;2535685;54;21090;-75
2023/04/25 12:40:58;;;;;;;2.15;1.00;;;15.00;74.00;;;;;;2545186;54;20955;-71
2023/04/25 12:43:24;;;;;;;1.90;0.90;;;15.10;74.20;;;;;;2544530;53;20927;-73
2023/04/25 12:45:51;;;;;;;2.12;0.93;;;15.10;74.20;;;;;;2544695;54;21489;-73
2023/04/25 12:48:18;;;;;;;2.00;1.00;;;15.20;74.30;;;;;;2540063;54;21005;-74
2023/04/25 12:50:47;;;;;;;2.25;1.00;;;15.20;74.00;;;;;;2538265;54;21367;-73